KWAL/WAL METAR and TAF weather

Enter ICAO airport designator
Station Type Date Time Source
KWAL METAR 2021/05/17 22:54 UTC NOAA

KWAL 172254Z AUTO 14004KT 10SM CLR 19/06 A3030 RMK AO2 SLP258 T01890061


Station Type Date Time Source
KWAL Decoded METAR 2021/05/17 22:54 UTC NOAA

WALLOPS FLIGHT FAC AIRPORT , VA, United States (KWAL) 37-56N 075-28W 14M
May 17, 2021 - 06:54 PM EDT / 2021.05.17 2254 UTC
Wind: from the SE (140 degrees) at 5 MPH (4 KT):0
Visibility: 10 mile(s):0
Sky conditions: clear
Temperature: 66.0 F (18.9 C)
Dew Point: 43.0 F (6.1 C)
Relative Humidity: 43%
Pressure (altimeter): 30.3 in. Hg (1026 hPa)
ob: KWAL 172254Z AUTO 14004KT 10SM CLR 19/06 A3030 RMK AO2 SLP258 T01890061
cycle: 23

Station Type Date Time Source
KWAL TAF UTC NOAA

Error!

Example: see airport list